Time;durP1;ratioP1;P1;durP2;ratioP2;P2;SDS_P1;SDS_P2;PMS_P1;PMS_P2;Temp;Humidity;BMP_temperature;BMP_pressure;BME280_temperature;BME280_humidity;BME280_pressure;Samples;Min_cycle;Max_cycle;Signal;HPM_P1;HPM_P2
2021/11/25 05:02:19;;;;;;;4.55;4.20;;;6.30;99.90;;;;;;5131605;23;20254;-70
2021/11/25 05:04:45;;;;;;;5.68;5.20;;;6.30;99.90;;;;;;4974371;28;20208;-70
2021/11/25 05:07:12;;;;;;;5.57;5.18;;;6.30;99.90;;;;;;4970882;28;20212;-70
2021/11/25 05:09:39;;;;;;;5.95;5.53;;;6.30;99.90;;;;;;4970798;28;20216;-70
2021/11/25 05:12:07;;;;;;;5.13;4.82;;;6.30;99.90;;;;;;4972411;28;20228;-70
2021/11/25 05:14:33;;;;;;;6.20;5.65;;;6.30;99.90;;;;;;4972633;28;20807;-71
2021/11/25 05:17:00;;;;;;;7.78;5.40;;;6.30;99.90;;;;;;4972091;28;20209;-70
2021/11/25 05:19:28;;;;;;;6.10;5.60;;;6.30;99.90;;;;;;4973525;28;20216;-70
2021/11/25 05:21:55;;;;;;;5.10;4.78;;;6.30;99.90;;;;;;4969540;28;20224;-70
2021/11/25 05:24:21;;;;;;;6.05;5.65;;;6.30;99.90;;;;;;4972491;28;20705;-70
2021/11/25 05:26:49;;;;;;;4.93;4.63;;;6.30;99.90;;;;;;4974357;28;20200;-70
2021/11/25 05:29:16;;;;;;;5.60;5.15;;;6.30;99.90;;;;;;4992739;23;20586;-71
2021/11/25 05:31:42;;;;;;;5.25;4.50;;;6.30;99.90;;;;;;4989171;28;20270;-72
2021/11/25 05:34:09;;;;;;;4.68;4.38;;;6.30;99.90;;;;;;4988717;28;20220;-72
2021/11/25 05:36:37;;;;;;;5.38;5.00;;;6.30;99.90;;;;;;4991622;28;20211;-72
2021/11/25 05:39:04;;;;;;;5.95;5.45;;;6.30;99.90;;;;;;4984093;28;20859;-72
2021/11/25 05:41:31;;;;;;;5.93;4.88;;;6.30;99.90;;;;;;4973786;28;20211;-71
2021/11/25 05:43:58;;;;;;;5.60;5.20;;;6.30;99.90;;;;;;4973103;28;20642;-72
2021/11/25 05:46:24;;;;;;;5.55;5.25;;;6.30;99.90;;;;;;4974564;28;20204;-72
2021/11/25 05:48:51;;;;;;;5.75;5.45;;;6.30;99.90;;;;;;4971501;28;20657;-71
2021/11/25 05:51:18;;;;;;;4.85;4.55;;;6.30;99.90;;;;;;4971235;28;20255;-71
2021/11/25 05:53:46;;;;;;;6.60;5.72;;;6.30;99.90;;;;;;4971494;28;20212;-71
2021/11/25 05:56:13;;;;;;;5.78;5.38;;;6.30;99.90;;;;;;4973728;28;20228;-71
2021/11/25 05:58:40;;;;;;;5.53;5.13;;;6.30;99.90;;;;;;4972243;28;20657;-72
2021/11/25 06:01:07;;;;;;;4.65;4.25;;;6.30;99.90;;;;;;4966481;28;20308;-72
2021/11/25 06:03:34;;;;;;;4.80;4.50;;;6.30;99.90;;;;;;4972221;28;20201;-72
2021/11/25 06:06:01;;;;;;;4.80;4.40;;;6.30;99.90;;;;;;4969573;28;20296;-72
2021/11/25 06:08:28;;;;;;;4.40;4.20;;;6.30;99.90;;;;;;4973560;28;20205;-71
2021/11/25 06:10:59;;;;;;;5.07;4.68;;;6.30;99.90;;;;;;4970583;28;20228;-72
2021/11/25 06:13:26;;;;;;;4.85;4.63;;;6.30;99.90;;;;;;4971720;28;20219;-72
2021/11/25 06:15:52;;;;;;;4.97;4.68;;;6.30;99.90;;;;;;4971401;28;20251;-71
2021/11/25 06:18:19;;;;;;;6.13;5.60;;;6.30;99.90;;;;;;4972330;28;20283;-72
2021/11/25 06:20:46;;;;;;;5.78;5.38;;;6.30;99.90;;;;;;4972075;28;20235;-72
2021/11/25 06:23:13;;;;;;;5.53;5.03;;;6.30;99.90;;;;;;4973384;28;20658;-72
2021/11/25 06:25:43;;;;;;;6.65;6.05;;;6.20;99.90;;;;;;4971890;28;20201;-72
2021/11/25 06:28:12;;;;;;;6.05;5.40;;;6.20;99.90;;;;;;4968901;28;20228;-72
2021/11/25 06:30:39;;;;;;;5.82;5.43;;;6.20;99.90;;;;;;4971346;28;20259;-71
2021/11/25 06:33:06;;;;;;;5.47;5.00;;;6.20;99.90;;;;;;4969172;28;20259;-71
2021/11/25 06:35:33;;;;;;;5.55;5.25;;;6.20;99.90;;;;;;4971572;28;20240;-71
2021/11/25 06:37:59;;;;;;;6.35;5.85;;;6.20;99.90;;;;;;4973069;28;20295;-71
2021/11/25 06:40:28;;;;;;;5.40;5.00;;;6.20;99.90;;;;;;4971581;28;20263;-71
2021/11/25 06:42:55;;;;;;;4.93;4.70;;;6.20;99.90;;;;;;4968245;28;20279;-71
2021/11/25 06:45:24;;;;;;;5.63;4.65;;;6.20;99.90;;;;;;4971484;28;20715;-71
2021/11/25 06:47:51;;;;;;;5.93;5.38;;;6.20;99.90;;;;;;4972762;28;20311;-71
2021/11/25 06:50:20;;;;;;;6.38;4.80;;;6.20;99.90;;;;;;4969940;28;20225;-71
2021/11/25 06:52:47;;;;;;;5.53;5.10;;;6.10;99.90;;;;;;4972990;28;20252;-71
2021/11/25 06:55:16;;;;;;;11.02;9.98;;;6.10;99.90;;;;;;4971733;28;20260;-71
2021/11/25 06:57:47;;;;;;;7.28;6.68;;;6.10;99.90;;;;;;4973141;28;20299;-71
2021/11/25 07:00:15;;;;;;;9.48;8.43;;;6.00;99.90;;;;;;4968929;28;20655;-71
2021/11/25 07:02:44;;;;;;;7.47;6.78;;;6.00;99.90;;;;;;4965060;28;20543;-70
2021/11/25 07:05:11;;;;;;;6.88;6.28;;;6.10;99.90;;;;;;4968674;28;20204;-71
2021/11/25 07:07:39;;;;;;;5.35;5.05;;;6.10;99.90;;;;;;4972624;28;20223;-71
2021/11/25 07:10:08;;;;;;;7.43;6.68;;;6.10;99.90;;;;;;4970986;28;20236;-71
2021/11/25 07:12:35;;;;;;;8.95;6.25;;;6.10;99.90;;;;;;4971170;28;20205;-71
2021/11/25 07:15:04;;;;;;;7.20;6.55;;;6.10;99.90;;;;;;4970546;28;20889;-71
2021/11/25 07:17:31;;;;;;;6.10;5.60;;;6.10;99.90;;;;;;4970783;28;20211;-72
2021/11/25 07:19:59;;;;;;;5.45;5.05;;;6.10;99.90;;;;;;4969691;28;20239;-71
2021/11/25 07:22:26;;;;;;;5.40;5.00;;;6.10;99.90;;;;;;4972401;28;20215;-71
2021/11/25 07:24:53;;;;;;;5.05;4.65;;;6.10;99.90;;;;;;4970750;28;20227;-71
2021/11/25 07:27:20;;;;;;;4.63;4.30;;;6.10;99.90;;;;;;4972308;28;20231;-72
2021/11/25 07:29:46;;;;;;;7.05;6.45;;;6.10;99.90;;;;;;4967729;28;20235;-71
2021/11/25 07:32:13;;;;;;;6.85;5.47;;;6.10;99.90;;;;;;4970856;28;20209;-71
2021/11/25 07:34:40;;;;;;;4.93;4.60;;;6.10;99.90;;;;;;4970595;28;20197;-71
2021/11/25 07:37:08;;;;;;;9.70;5.57;;;6.10;99.90;;;;;;4971862;28;20383;-71
2021/11/25 07:39:35;;;;;;;5.07;4.75;;;6.10;99.90;;;;;;4971481;28;20232;-72
2021/11/25 07:42:02;;;;;;;6.80;5.45;;;6.10;99.90;;;;;;4971943;28;20197;-71
2021/11/25 07:44:29;;;;;;;5.57;5.15;;;6.20;99.90;;;;;;4971670;28;20255;-71
2021/11/25 07:46:56;;;;;;;5.28;4.88;;;6.20;99.90;;;;;;4971970;28;20212;-72
2021/11/25 07:49:24;;;;;;;5.85;5.50;;;6.20;99.90;;;;;;4970834;28;20235;-72
2021/11/25 07:51:51;;;;;;;5.22;4.93;;;6.20;99.90;;;;;;4971583;28;20288;-72
2021/11/25 07:54:19;;;;;;;4.80;4.50;;;6.20;99.90;;;;;;4971699;28;20211;-72
2021/11/25 07:56:46;;;;;;;5.93;5.53;;;6.20;99.90;;;;;;4971011;28;20814;-72
2021/11/25 07:59:13;;;;;;;6.55;6.05;;;6.30;99.90;;;;;;4952898;28;20233;-71
2021/11/25 08:01:41;;;;;;;6.65;6.10;;;6.30;99.90;;;;;;4965651;28;20207;-71
2021/11/25 08:04:08;;;;;;;6.38;5.78;;;6.30;99.90;;;;;;4977633;28;20215;-72
2021/11/25 08:06:35;;;;;;;6.85;6.10;;;6.30;99.90;;;;;;4978225;28;20196;-71
2021/11/25 08:09:02;;;;;;;6.30;5.80;;;6.30;99.90;;;;;;4978165;28;20232;-71
2021/11/25 08:11:30;;;;;;;6.35;5.85;;;6.30;99.90;;;;;;4977901;28;20258;-72
2021/11/25 08:13:56;;;;;;;6.32;5.72;;;6.20;99.90;;;;;;4977987;28;20208;-71
2021/11/25 08:16:23;;;;;;;6.40;6.10;;;6.20;99.90;;;;;;4978311;28;20675;-72
2021/11/25 08:18:50;;;;;;;11.65;9.35;;;6.20;99.90;;;;;;4977052;28;20197;-71
2021/11/25 08:21:16;;;;;;;21.73;12.45;;;6.20;99.90;;;;;;4975531;28;20207;-71
2021/11/25 08:23:43;;;;;;;21.98;15.20;;;6.20;99.90;;;;;;4978193;28;20546;-71
2021/11/25 08:26:10;;;;;;;15.32;11.65;;;6.20;99.90;;;;;;4978757;28;20208;-71
2021/11/25 08:28:39;;;;;;;12.27;9.35;;;6.10;99.90;;;;;;4977734;28;20217;-71
2021/11/25 08:31:07;;;;;;;12.13;8.63;;;6.10;99.90;;;;;;4976905;28;20526;-71
2021/11/25 08:33:34;;;;;;;10.40;8.32;;;6.10;99.90;;;;;;4976826;28;20208;-71
2021/11/25 08:36:01;;;;;;;14.77;9.20;;;6.20;99.90;;;;;;4977719;28;20299;-71
2021/11/25 08:38:30;;;;;;;12.63;9.65;;;6.30;99.90;;;;;;4978058;28;20263;-71
2021/11/25 08:40:57;;;;;;;11.80;8.73;;;6.40;99.90;;;;;;4975816;28;20229;-71
2021/11/25 08:43:24;;;;;;;12.38;9.25;;;6.50;99.90;;;;;;4976919;28;20287;-72
2021/11/25 08:45:52;;;;;;;10.63;8.57;;;6.60;99.90;;;;;;4977602;28;20209;-71
2021/11/25 08:48:19;;;;;;;9.82;8.82;;;6.70;99.90;;;;;;4977620;28;20215;-71
2021/11/25 08:50:45;;;;;;;12.70;9.20;;;6.70;99.90;;;;;;4977312;28;20282;-71
2021/11/25 08:53:12;;;;;;;11.95;9.05;;;6.70;99.90;;;;;;4985268;28;20213;-71
2021/11/25 08:55:39;;;;;;;13.95;10.43;;;6.70;99.90;;;;;;4984222;28;20220;-71
2021/11/25 08:58:07;;;;;;;12.27;9.93;;;6.80;99.90;;;;;;4986427;28;20238;-71
2021/11/25 09:00:34;;;;;;;14.50;10.65;;;6.80;99.90;;;;;;4989815;28;20220;-71
2021/11/25 09:03:03;;;;;;;13.48;11.00;;;6.80;99.90;;;;;;4987045;28;20215;-71
2021/11/25 09:05:32;;;;;;;13.98;11.70;;;6.80;99.90;;;;;;4979889;28;20204;-71
2021/11/25 09:07:59;;;;;;;14.48;10.80;;;6.80;99.90;;;;;;4984241;28;20259;-72
2021/11/25 09:10:26;;;;;;;15.45;10.63;;;6.90;99.90;;;;;;4983368;28;20220;-72
2021/11/25 09:12:52;;;;;;;14.98;11.40;;;6.90;99.90;;;;;;4981926;28;20222;-71
2021/11/25 09:15:19;;;;;;;13.75;11.73;;;6.90;99.90;;;;;;4976912;28;20228;-72
2021/11/25 09:17:47;;;;;;;15.77;12.27;;;6.90;99.90;;;;;;4977255;28;20300;-72
2021/11/25 09:20:15;;;;;;;17.48;12.27;;;6.90;99.90;;;;;;4975031;28;20236;-72
2021/11/25 09:22:41;;;;;;;15.88;12.48;;;7.00;99.90;;;;;;4974368;28;20197;-71
2021/11/25 09:25:09;;;;;;;19.75;13.35;;;7.00;99.90;;;;;;4974663;28;20208;-71
2021/11/25 09:27:36;;;;;;;16.45;12.27;;;7.00;99.90;;;;;;4974694;28;20208;-71
2021/11/25 09:30:03;;;;;;;18.58;13.88;;;7.00;99.90;;;;;;4974130;28;20720;-70
2021/11/25 09:32:30;;;;;;;15.07;12.68;;;7.10;99.90;;;;;;4969387;28;20214;-71
2021/11/25 09:34:57;;;;;;;21.95;13.32;;;7.10;99.90;;;;;;4977068;28;20654;-71
2021/11/25 09:37:26;;;;;;;30.35;14.45;;;7.20;99.90;;;;;;4974979;28;20323;-71
2021/11/25 09:39:53;;;;;;;19.02;13.75;;;7.20;99.90;;;;;;4973423;28;20735;-71
2021/11/25 09:42:20;;;;;;;16.08;11.85;;;7.20;99.90;;;;;;4976162;28;20232;-71
2021/11/25 09:44:46;;;;;;;18.30;13.00;;;7.20;99.90;;;;;;4974432;28;20205;-71
2021/11/25 09:47:16;;;;;;;18.58;13.32;;;7.20;99.90;;;;;;4974484;28;20205;-73
2021/11/25 09:49:44;;;;;;;19.35;14.55;;;7.30;99.90;;;;;;4973590;28;20753;-73
2021/11/25 09:52:11;;;;;;;17.25;13.55;;;7.30;99.90;;;;;;4973797;28;20201;-73
2021/11/25 09:54:39;;;;;;;18.35;14.40;;;7.30;99.90;;;;;;4978424;28;20204;-72
2021/11/25 09:57:06;;;;;;;22.23;13.98;;;7.40;99.90;;;;;;4994008;28;20235;-71
2021/11/25 09:59:33;;;;;;;22.92;14.68;;;7.40;99.90;;;;;;4981667;28;20229;-72
2021/11/25 10:02:00;;;;;;;21.50;14.50;;;7.40;99.90;;;;;;4973932;28;20214;-72
2021/11/25 10:04:28;;;;;;;18.52;13.18;;;7.50;99.90;;;;;;4973061;28;20575;-72
2021/11/25 10:06:57;;;;;;;19.65;13.07;;;7.50;99.90;;;;;;4974119;28;20617;-71
2021/11/25 10:09:34;;;;;;;20.60;13.52;;;7.50;99.90;;;;;;4973996;28;20239;-72
2021/11/25 10:12:22;;;;;;;18.63;13.27;;;7.50;99.90;;;;;;4967121;28;20200;-70
2021/11/25 10:14:51;;;;;;;20.13;13.98;;;7.50;99.90;;;;;;4973654;28;20212;-71
2021/11/25 10:17:44;;;;;;;21.20;15.02;;;7.60;99.90;;;;;;4973369;28;20224;-71
2021/11/25 10:20:15;;;;;;;18.92;14.70;;;7.60;99.90;;;;;;4973560;28;20228;-71
2021/11/25 10:23:13;;;;;;;18.42;14.52;;;7.60;99.90;;;;;;4972928;28;20215;-70
2021/11/25 10:25:45;;;;;;;18.50;14.48;;;7.70;99.90;;;;;;4973284;28;20597;-70
2021/11/25 10:28:22;;;;;;;21.02;14.20;;;7.70;99.90;;;;;;4985799;28;20285;-71
2021/11/25 10:30:51;;;;;;;20.60;14.60;;;7.70;99.90;;;;;;4990183;28;20239;-70
2021/11/25 10:33:24;;;;;;;25.73;15.75;;;7.70;99.90;;;;;;4987664;28;20207;-71
2021/11/25 10:36:15;;;;;;;21.08;14.90;;;7.70;99.90;;;;;;4992806;28;20224;-71
2021/11/25 10:39:07;;;;;;;19.88;15.05;;;7.70;99.90;;;;;;4982256;28;20204;-71
2021/11/25 10:41:36;;;;;;;23.83;15.63;;;7.80;99.90;;;;;;4972647;28;20649;-70
2021/11/25 10:44:15;;;;;;;33.63;17.60;;;7.70;99.90;;;;;;4972849;28;20213;-70
2021/11/25 10:46:45;;;;;;;24.83;16.60;;;7.70;99.90;;;;;;4972620;28;20290;-71
2021/11/25 10:49:12;;;;;;;24.33;17.33;;;7.80;99.90;;;;;;4970440;28;20239;-71
2021/11/25 10:51:41;;;;;;;29.10;17.75;;;7.70;99.90;;;;;;4972932;28;20212;-71
2021/11/25 10:54:11;;;;;;;26.23;17.70;;;7.70;99.90;;;;;;4972656;28;20581;-71
2021/11/25 10:56:40;;;;;;;25.48;17.58;;;7.70;99.90;;;;;;4969963;28;20320;-71
2021/11/25 10:59:08;;;;;;;23.95;16.52;;;7.70;99.90;;;;;;4972486;28;20225;-71
2021/11/25 11:01:39;;;;;;;25.27;16.27;;;7.70;99.90;;;;;;4972920;28;20204;-71
2021/11/25 11:04:07;;;;;;;27.45;18.10;;;7.70;99.90;;;;;;4972077;28;20218;-71
2021/11/25 11:06:36;;;;;;;28.75;18.92;;;7.70;99.90;;;;;;4973238;28;20200;-71
2021/11/25 11:09:03;;;;;;;28.83;19.58;;;7.70;99.90;;;;;;4972436;28;20232;-71
2021/11/25 11:11:32;;;;;;;30.83;21.42;;;7.70;99.90;;;;;;4972440;28;20196;-71
2021/11/25 11:14:17;;;;;;;29.30;19.80;;;7.70;99.90;;;;;;4972510;28;20210;-71
2021/11/25 11:16:48;;;;;;;28.63;17.00;;;7.70;99.90;;;;;;4972025;28;20220;-71
2021/11/25 11:19:17;;;;;;;27.75;18.27;;;7.70;99.90;;;;;;4972517;28;20228;-69
2021/11/25 11:21:45;;;;;;;27.42;18.05;;;7.80;99.90;;;;;;4973294;28;20200;-71
2021/11/25 11:24:13;;;;;;;23.90;17.52;;;7.80;99.90;;;;;;4972545;28;20209;-71
2021/11/25 11:26:43;;;;;;;30.75;19.48;;;7.80;99.90;;;;;;4972999;28;20204;-71
2021/11/25 11:29:11;;;;;;;31.92;19.33;;;7.90;99.90;;;;;;4972178;28;20240;-71
2021/11/25 11:31:39;;;;;;;24.38;18.02;;;7.80;99.90;;;;;;5023960;23;20242;-69
2021/11/25 11:34:09;;;;;;;30.60;20.58;;;7.90;99.90;;;;;;4990917;28;20211;-69
2021/11/25 11:36:40;;;;;;;28.40;19.17;;;7.90;99.90;;;;;;4991837;28;20748;-70
2021/11/25 11:39:08;;;;;;;29.38;19.08;;;7.90;99.90;;;;;;4992178;28;20303;-72
2021/11/25 11:41:35;;;;;;;29.35;19.67;;;7.90;99.90;;;;;;4978202;28;20220;-70
2021/11/25 11:44:03;;;;;;;26.20;18.05;;;7.90;99.90;;;;;;4972180;28;20212;-70
2021/11/25 11:46:32;;;;;;;28.05;19.23;;;7.90;99.90;;;;;;4971164;28;20291;-69
2021/11/25 11:49:01;;;;;;;30.75;18.60;;;8.00;99.90;;;;;;4971310;28;20215;-73
2021/11/25 11:51:31;;;;;;;28.60;18.60;;;7.90;99.90;;;;;;4971796;28;20626;-69
2021/11/25 11:53:58;;;;;;;31.60;19.83;;;7.90;99.90;;;;;;4972008;28;20282;-69
2021/11/25 11:56:36;;;;;;;25.33;17.63;;;7.90;99.90;;;;;;4971437;28;20243;-69
2021/11/25 11:59:05;;;;;;;27.77;18.55;;;8.00;99.90;;;;;;4971729;28;20223;-69
2021/11/25 12:01:33;;;;;;;32.75;19.65;;;8.00;99.90;;;;;;4971112;28;20216;-70
2021/11/25 12:04:12;;;;;;;30.65;19.70;;;8.00;99.90;;;;;;4971451;28;20208;-70
2021/11/25 12:06:42;;;;;;;25.17;18.17;;;8.00;99.90;;;;;;4971791;28;20210;-68
2021/11/25 12:09:32;;;;;;;27.40;19.13;;;7.90;99.90;;;;;;4971750;28;20571;-70
2021/11/25 12:12:08;;;;;;;26.55;18.27;;;8.00;99.90;;;;;;4971805;28;20375;-69
2021/11/25 12:14:35;;;;;;;29.05;19.35;;;8.00;99.90;;;;;;4976751;28;20593;-69
2021/11/25 12:17:04;;;;;;;33.50;21.40;;;7.90;99.90;;;;;;4971254;28;20238;-71
2021/11/25 12:19:32;;;;;;;30.77;19.58;;;7.80;99.90;;;;;;4970793;28;20207;-70
2021/11/25 12:22:04;;;;;;;30.88;20.25;;;7.80;99.90;;;;;;4971286;28;20247;-69
2021/11/25 12:24:43;;;;;;;30.15;20.42;;;7.80;99.90;;;;;;4970444;28;20585;-70
2021/11/25 12:27:14;;;;;;;31.80;20.40;;;7.80;99.90;;;;;;4972236;28;20298;-69
2021/11/25 12:29:56;;;;;;;34.40;21.67;;;7.80;99.90;;;;;;4970811;28;20201;-69
2021/11/25 12:32:31;;;;;;;30.10;19.75;;;7.80;99.90;;;;;;4970176;28;20669;-69
2021/11/25 12:35:03;;;;;;;31.98;22.33;;;7.80;99.90;;;;;;4969379;28;20208;-69
2021/11/25 12:37:56;;;;;;;30.05;21.42;;;7.80;99.90;;;;;;4970953;28;20266;-69
2021/11/25 12:40:41;;;;;;;33.28;22.35;;;7.70;99.90;;;;;;4970948;28;20232;-70
2021/11/25 12:43:10;;;;;;;34.25;22.67;;;7.70;99.90;;;;;;4971852;28;20204;-70
2021/11/25 12:45:38;;;;;;;30.95;21.30;;;7.70;99.90;;;;;;4971230;28;20227;-69
2021/11/25 12:48:17;;;;;;;35.72;22.88;;;7.70;99.90;;;;;;4970540;28;20224;-69
2021/11/25 12:50:46;;;;;;;40.22;22.48;;;7.70;99.90;;;;;;4974268;28;20224;-69
2021/11/25 12:53:16;;;;;;;31.90;21.13;;;7.60;99.90;;;;;;4974791;28;20204;-69
2021/11/25 12:55:46;;;;;;;36.30;23.05;;;7.60;99.90;;;;;;4974536;28;20201;-69
2021/11/25 12:58:14;;;;;;;40.40;23.73;;;7.60;99.90;;;;;;4974923;28;20237;-69
2021/11/25 13:00:42;;;;;;;41.72;24.67;;;7.60;99.90;;;;;;4974604;28;20267;-69
2021/11/25 13:03:11;;;;;;;39.83;23.63;;;7.60;99.90;;;;;;4974211;28;20224;-69
2021/11/25 13:05:39;;;;;;;36.53;24.02;;;7.50;99.90;;;;;;4974773;28;20513;-69
2021/11/25 13:08:08;;;;;;;45.83;24.95;;;7.50;99.90;;;;;;4974339;28;20200;-69
2021/11/25 13:10:38;;;;;;;40.10;23.38;;;7.40;99.90;;;;;;4972554;28;20235;-69
2021/11/25 13:13:09;;;;;;;35.83;24.20;;;7.40;99.90;;;;;;4971867;28;20215;-70
2021/11/25 13:15:36;;;;;;;42.30;25.88;;;7.40;99.90;;;;;;4974533;28;20227;-70
2021/11/25 13:18:04;;;;;;;39.20;25.70;;;7.40;99.90;;;;;;4973724;28;20228;-70
2021/11/25 13:20:45;;;;;;;35.40;24.20;;;7.30;99.90;;;;;;4973139;28;20283;-70
2021/11/25 13:23:14;;;;;;;40.58;25.65;;;7.30;99.90;;;;;;4974388;28;20212;-70
2021/11/25 13:25:49;;;;;;;38.45;25.58;;;7.30;99.90;;;;;;4974904;28;20208;-70
2021/11/25 13:28:28;;;;;;;37.08;23.50;;;7.30;99.90;;;;;;4974791;28;20204;-69
2021/11/25 13:31:10;;;;;;;39.35;27.00;;;7.20;99.90;;;;;;4974066;28;20238;-69
2021/11/25 13:34:03;;;;;;;36.22;24.88;;;7.20;99.90;;;;;;4974130;28;20213;-69
2021/11/25 13:36:33;;;;;;;41.83;25.52;;;7.20;99.90;;;;;;4979320;28;20212;-68
2021/11/25 13:39:03;;;;;;;40.67;25.98;;;7.10;99.90;;;;;;4971659;28;20496;-69
2021/11/25 13:41:31;;;;;;;41.30;26.50;;;7.10;99.90;;;;;;4973456;28;20622;-68
2021/11/25 13:44:01;;;;;;;38.78;24.05;;;7.10;99.90;;;;;;4973956;28;20235;-69
2021/11/25 13:46:37;;;;;;;41.33;23.75;;;7.10;99.90;;;;;;4972743;28;20279;-70
2021/11/25 13:49:05;;;;;;;41.55;25.73;;;7.00;99.90;;;;;;4973078;28;20204;-68
2021/11/25 13:51:32;;;;;;;39.30;23.73;;;7.00;99.90;;;;;;4973319;28;20231;-69
2021/11/25 13:54:04;;;;;;;40.85;26.13;;;7.10;99.90;;;;;;4971288;28;20613;-70
2021/11/25 13:56:32;;;;;;;38.60;23.00;;;7.00;99.90;;;;;;4973566;28;20648;-69
2021/11/25 13:59:00;;;;;;;39.63;25.65;;;7.00;99.90;;;;;;4973835;28;20529;-68
2021/11/25 14:01:28;;;;;;;45.50;25.35;;;7.00;99.90;;;;;;4972499;28;20228;-69
2021/11/25 14:03:55;;;;;;;35.63;23.58;;;7.00;99.90;;;;;;4972941;28;20212;-70
2021/11/25 14:06:23;;;;;;;46.88;27.27;;;7.00;99.90;;;;;;4972897;28;20215;-70
2021/11/25 14:08:51;;;;;;;37.70;25.10;;;6.90;99.90;;;;;;4973426;28;20207;-69
2021/11/25 14:11:18;;;;;;;38.53;25.83;;;6.90;99.90;;;;;;4972766;28;20612;-68
2021/11/25 14:13:46;;;;;;;38.80;25.25;;;6.90;99.90;;;;;;4972720;28;20200;-68
2021/11/25 14:16:15;;;;;;;42.92;24.85;;;6.90;99.90;;;;;;4973020;28;21836;-69
2021/11/25 14:18:42;;;;;;;37.45;23.65;;;6.90;99.90;;;;;;4971519;28;20251;-70
2021/11/25 14:21:08;;;;;;;44.50;27.52;;;6.90;99.90;;;;;;4972295;28;20228;-69
2021/11/25 14:23:35;;;;;;;42.85;27.38;;;6.90;99.90;;;;;;4972451;28;20231;-69
2021/11/25 14:26:17;;;;;;;36.75;25.80;;;6.90;99.90;;;;;;4973564;28;20527;-70
2021/11/25 14:31:31;;;;;;;40.75;24.60;;;6.90;99.90;;;;;;4970674;28;20657;-70
2021/11/25 14:34:00;;;;;;;36.90;23.92;;;6.90;99.90;;;;;;4968083;28;20291;-70
2021/11/25 14:36:29;;;;;;;32.97;23.20;;;6.80;99.90;;;;;;4968567;28;20236;-70
2021/11/25 14:38:58;;;;;;;39.83;25.42;;;6.80;99.90;;;;;;4968799;28;20225;-67
2021/11/25 14:41:28;;;;;;;31.30;21.80;;;6.90;99.90;;;;;;4964325;28;20235;-68
2021/11/25 14:44:01;;;;;;;35.10;23.55;;;6.80;99.90;;;;;;4970871;28;20782;-68
2021/11/25 14:46:30;;;;;;;32.92;21.52;;;6.80;99.90;;;;;;4971546;28;20212;-69
2021/11/25 14:48:56;;;;;;;42.10;23.13;;;6.80;99.90;;;;;;4971902;28;20208;-69
2021/11/25 14:51:23;;;;;;;33.95;23.42;;;6.80;99.90;;;;;;4972020;28;20228;-68
2021/11/25 14:53:52;;;;;;;32.22;22.35;;;6.80;99.90;;;;;;4971143;28;20212;-68
2021/11/25 14:56:25;;;;;;;37.63;24.13;;;6.80;99.90;;;;;;4963578;28;20209;-69
2021/11/25 14:58:55;;;;;;;36.63;23.95;;;6.80;99.90;;;;;;4968237;28;20220;-68
2021/11/25 15:01:28;;;;;;;40.92;26.00;;;6.80;99.90;;;;;;4970935;28;20946;-69
2021/11/25 15:04:00;;;;;;;47.97;27.48;;;6.80;99.90;;;;;;4971185;28;20231;-69
2021/11/25 15:06:31;;;;;;;35.65;23.63;;;6.80;99.90;;;;;;4971548;28;20232;-68
2021/11/25 15:08:58;;;;;;;39.70;24.90;;;6.80;99.90;;;;;;4971913;28;20605;-69
2021/11/25 15:11:25;;;;;;;40.78;25.83;;;6.80;99.90;;;;;;4970048;28;20228;-68
2021/11/25 15:13:52;;;;;;;39.78;25.08;;;6.80;99.90;;;;;;4971183;28;20204;-69
2021/11/25 15:16:19;;;;;;;46.05;26.65;;;6.70;99.90;;;;;;4971250;28;20583;-68
2021/11/25 15:18:46;;;;;;;42.40;25.30;;;6.70;99.90;;;;;;4970486;28;20231;-68
2021/11/25 15:21:14;;;;;;;46.35;28.00;;;6.70;99.90;;;;;;4970453;28;20759;-71
2021/11/25 15:23:40;;;;;;;40.97;25.08;;;6.60;99.90;;;;;;4971335;28;20576;-69
2021/11/25 15:26:10;;;;;;;41.50;25.67;;;6.60;99.90;;;;;;4971305;28;20200;-69
2021/11/25 15:28:37;;;;;;;41.63;26.30;;;6.60;99.90;;;;;;4971468;28;20295;-69
2021/11/25 15:31:04;;;;;;;48.92;27.60;;;6.60;99.90;;;;;;4970676;28;20251;-69
2021/11/25 15:33:31;;;;;;;44.00;28.08;;;6.60;99.90;;;;;;4970462;28;20204;-69
2021/11/25 15:36:04;;;;;;;45.45;25.27;;;6.60;99.90;;;;;;4971874;28;20212;-70
2021/11/25 15:38:33;;;;;;;39.08;25.73;;;6.60;99.90;;;;;;4970573;28;20212;-69
2021/11/25 15:41:00;;;;;;;43.88;24.63;;;6.60;99.90;;;;;;4966330;28;20228;-69
2021/11/25 15:43:27;;;;;;;40.90;24.15;;;6.60;99.90;;;;;;4969090;28;20216;-70
2021/11/25 15:45:54;;;;;;;39.42;23.70;;;6.60;99.90;;;;;;4971169;28;20665;-69
2021/11/25 15:48:21;;;;;;;36.40;22.70;;;6.60;99.90;;;;;;4970041;28;20197;-70
2021/11/25 15:50:50;;;;;;;41.83;25.17;;;6.60;99.90;;;;;;4970677;28;20231;-70
2021/11/25 15:53:18;;;;;;;40.05;22.90;;;6.60;99.90;;;;;;4971320;28;20287;-70
2021/11/25 15:55:47;;;;;;;39.80;23.73;;;6.50;99.90;;;;;;4970954;28;20232;-70
2021/11/25 15:58:14;;;;;;;35.35;21.20;;;6.50;99.90;;;;;;4967303;28;20610;-69
2021/11/25 16:00:41;;;;;;;42.90;23.00;;;6.50;99.90;;;;;;4970215;28;20224;-70
2021/11/25 16:03:08;;;;;;;33.55;23.70;;;6.50;99.90;;;;;;4970150;28;20207;-70
2021/11/25 16:05:34;;;;;;;43.63;24.08;;;6.60;99.90;;;;;;4971573;28;20582;-69
2021/11/25 16:08:01;;;;;;;37.40;22.63;;;6.60;99.90;;;;;;4971223;28;20197;-70
2021/11/25 16:10:28;;;;;;;44.58;23.52;;;6.60;99.90;;;;;;4970689;28;20232;-69
2021/11/25 16:12:58;;;;;;;37.40;21.80;;;6.60;99.90;;;;;;4970110;28;20224;-69
2021/11/25 16:15:25;;;;;;;38.25;22.40;;;6.50;99.90;;;;;;4965946;28;20216;-68
2021/11/25 16:17:52;;;;;;;38.53;23.00;;;6.50;99.90;;;;;;4970235;28;20335;-70
2021/11/25 16:20:20;;;;;;;44.53;23.83;;;6.50;99.90;;;;;;4966375;28;20571;-70
2021/11/25 16:22:47;;;;;;;47.75;24.45;;;6.50;99.90;;;;;;4971527;28;20201;-68
2021/11/25 16:25:14;;;;;;;40.40;23.90;;;6.50;99.90;;;;;;4975184;28;20208;-68
2021/11/25 16:27:41;;;;;;;40.67;22.27;;;6.50;99.90;;;;;;4975010;28;20205;-69
2021/11/25 16:30:11;;;;;;;40.55;23.20;;;6.50;99.90;;;;;;4973860;28;20318;-68
2021/11/25 16:32:37;;;;;;;38.08;22.55;;;6.50;99.90;;;;;;4973002;28;20212;-68
2021/11/25 16:35:05;;;;;;;41.63;23.80;;;6.50;99.90;;;;;;4968908;28;20215;-68
2021/11/25 16:37:32;;;;;;;39.97;23.75;;;6.40;99.90;;;;;;4974912;28;20204;-69
2021/11/25 16:39:59;;;;;;;38.85;21.45;;;6.40;99.90;;;;;;4974511;28;20204;-69
2021/11/25 16:42:26;;;;;;;42.63;23.77;;;6.40;99.90;;;;;;4973768;28;20705;-68
2021/11/25 16:44:52;;;;;;;42.95;24.73;;;6.40;99.90;;;;;;4969135;28;20216;-69
2021/11/25 16:50:06;;;;;;;43.35;22.10;;;6.30;99.90;;;;;;4966620;28;20676;-69
2021/11/25 16:52:33;;;;;;;43.92;22.65;;;6.30;99.90;;;;;;4975044;28;20215;-69
2021/11/25 16:55:00;;;;;;;43.03;21.90;;;6.20;99.90;;;;;;4972973;28;20212;-69
2021/11/25 16:57:28;;;;;;;37.90;22.00;;;6.20;99.90;;;;;;4973919;28;20204;-70
2021/11/25 16:59:55;;;;;;;39.90;22.52;;;6.20;99.90;;;;;;4973426;28;20294;-71
2021/11/25 17:02:23;;;;;;;44.03;22.10;;;6.30;99.90;;;;;;4973062;28;20221;-69
2021/11/25 17:04:50;;;;;;;38.83;22.60;;;6.30;99.90;;;;;;4972393;28;20252;-69
2021/11/25 17:07:16;;;;;;;43.00;20.27;;;6.30;99.90;;;;;;4972886;28;20216;-70
2021/11/25 17:09:44;;;;;;;40.88;21.77;;;6.20;99.90;;;;;;4973693;28;20249;-70
2021/11/25 17:12:13;;;;;;;33.63;19.55;;;6.20;99.90;;;;;;4966646;28;20239;-70
2021/11/25 17:14:40;;;;;;;32.63;18.65;;;6.20;99.90;;;;;;4972342;28;20220;-67
2021/11/25 17:17:07;;;;;;;24.02;15.10;;;6.20;99.90;;;;;;4974345;28;20216;-69
2021/11/25 17:19:35;;;;;;;28.40;16.55;;;6.20;99.90;;;;;;4972528;28;20312;-70
2021/11/25 17:22:02;;;;;;;24.50;15.18;;;6.10;99.90;;;;;;4974379;28;20229;-70
2021/11/25 17:24:32;;;;;;;22.08;14.90;;;6.10;99.90;;;;;;4972254;28;20551;-70
2021/11/25 17:26:58;;;;;;;18.65;12.48;;;6.10;99.90;;;;;;4974439;28;20692;-69
2021/11/25 17:29:25;;;;;;;20.73;13.30;;;6.00;99.90;;;;;;4974285;28;20208;-68
2021/11/25 17:31:52;;;;;;;19.60;11.93;;;6.00;99.90;;;;;;4974097;28;20232;-69
2021/11/25 17:34:19;;;;;;;20.33;12.05;;;6.00;99.90;;;;;;4972774;28;20205;-68
2021/11/25 17:36:47;;;;;;;18.60;12.18;;;5.90;99.90;;;;;;4973963;28;20215;-68
2021/11/25 17:39:14;;;;;;;23.25;13.95;;;5.90;99.90;;;;;;4973565;28;20232;-70
2021/11/25 17:41:40;;;;;;;22.52;13.88;;;5.90;99.90;;;;;;4973915;28;20287;-68
2021/11/25 17:44:07;;;;;;;27.85;15.00;;;5.80;99.90;;;;;;4973840;28;20201;-70
2021/11/25 17:46:34;;;;;;;28.60;16.85;;;5.80;99.90;;;;;;4955954;28;20231;-71
2021/11/25 17:49:03;;;;;;;29.38;16.63;;;5.80;99.90;;;;;;4970510;28;20213;-69
2021/11/25 17:51:30;;;;;;;29.63;16.92;;;5.90;99.90;;;;;;4970269;28;20239;-69
2021/11/25 17:53:59;;;;;;;30.65;15.90;;;5.90;99.90;;;;;;4971002;28;20570;-69
2021/11/25 17:56:26;;;;;;;31.95;17.80;;;5.80;99.90;;;;;;4971203;28;20220;-68
2021/11/25 17:58:53;;;;;;;28.98;17.23;;;5.80;99.90;;;;;;4968314;28;20227;-69